Coosa Pines, Alabama
Current Conditions -  °F | °C
As of 4:15 PM on Sunday 25 Jan 2015 (Local Time) from KSCD Reporting Station
Clear Clear  
Wind Chill: 60°   Ceiling: Unl
Heat Index: 60°   Visibility: 10mi
Dew Point: 35°   Wind: 16mph
Humidity: 39%   Direction: 240°WSW
Pressure: 29.75"   Gusts: 21mph
Location:  33.2952°N, 86.335°W
Report Text: KSCD 252215Z AUTO 24014G18KT 10SM CLR 16/02 A2975 RMK AO2 T01560015
Loading
Personal Weather Stations






























Interactive Weather Map New forecast layout! Learn more

10-Day Weather Forecast

Advertisements
Track Severe Weather on mobile